sensor_id;sensor_type;location;lat;lon;timestamp;P1;durP1;ratioP1;P2;durP2;ratioP2
27632;SDS011;15046;50.930;13.334;2023-09-18T00:01:56;7.15;;;4.10;;
27632;SDS011;15046;50.930;13.334;2023-09-18T00:04:22;6.53;;;4.28;;
27632;SDS011;15046;50.930;13.334;2023-09-18T00:06:47;5.78;;;3.42;;
27632;SDS011;15046;50.930;13.334;2023-09-18T00:09:13;6.43;;;3.90;;
27632;SDS011;15046;50.930;13.334;2023-09-18T00:11:39;8.65;;;4.55;;
27632;SDS011;15046;50.930;13.334;2023-09-18T00:14:05;6.55;;;3.70;;
27632;SDS011;15046;50.930;13.334;2023-09-18T00:16:32;8.90;;;3.65;;
27632;SDS011;15046;50.930;13.334;2023-09-18T00:18:58;6.55;;;3.80;;
27632;SDS011;15046;50.930;13.334;2023-09-18T00:21:24;5.55;;;3.67;;
27632;SDS011;15046;50.930;13.334;2023-09-18T00:23:50;7.82;;;3.70;;
27632;SDS011;15046;50.930;13.334;2023-09-18T00:26:17;7.90;;;3.58;;
27632;SDS011;15046;50.930;13.334;2023-09-18T00:28:43;7.00;;;3.63;;
27632;SDS011;15046;50.930;13.334;2023-09-18T00:31:08;5.90;;;3.60;;
27632;SDS011;15046;50.930;13.334;2023-09-18T00:33:35;8.95;;;4.05;;
27632;SDS011;15046;50.930;13.334;2023-09-18T00:36:00;8.60;;;3.75;;
27632;SDS011;15046;50.930;13.334;2023-09-18T00:38:26;5.10;;;3.47;;
27632;SDS011;15046;50.930;13.334;2023-09-18T00:40:52;5.32;;;3.53;;
27632;SDS011;15046;50.930;13.334;2023-09-18T00:43:18;5.43;;;3.35;;
27632;SDS011;15046;50.930;13.334;2023-09-18T00:45:47;8.05;;;3.42;;
27632;SDS011;15046;50.930;13.334;2023-09-18T00:48:14;7.68;;;4.10;;
27632;SDS011;15046;50.930;13.334;2023-09-18T00:50:41;4.82;;;3.60;;
27632;SDS011;15046;50.930;13.334;2023-09-18T00:53:08;15.00;;;3.92;;
27632;SDS011;15046;50.930;13.334;2023-09-18T00:55:36;4.70;;;3.42;;
27632;SDS011;15046;50.930;13.334;2023-09-18T00:58:03;6.05;;;3.85;;
27632;SDS011;15046;50.930;13.334;2023-09-18T01:00:30;7.28;;;3.83;;
27632;SDS011;15046;50.930;13.334;2023-09-18T01:02:56;6.10;;;4.05;;
27632;SDS011;15046;50.930;13.334;2023-09-18T01:05:21;6.95;;;4.15;;
27632;SDS011;15046;50.930;13.334;2023-09-18T01:07:47;7.60;;;4.30;;
27632;SDS011;15046;50.930;13.334;2023-09-18T01:10:13;7.72;;;4.38;;
27632;SDS011;15046;50.930;13.334;2023-09-18T01:12:48;7.28;;;3.92;;
27632;SDS011;15046;50.930;13.334;2023-09-18T01:15:40;6.38;;;3.85;;
27632;SDS011;15046;50.930;13.334;2023-09-18T01:18:13;5.82;;;3.92;;
27632;SDS011;15046;50.930;13.334;2023-09-18T01:20:39;8.20;;;4.22;;
27632;SDS011;15046;50.930;13.334;2023-09-18T01:23:04;7.45;;;4.45;;
27632;SDS011;15046;50.930;13.334;2023-09-18T01:25:30;7.22;;;4.22;;
27632;SDS011;15046;50.930;13.334;2023-09-18T01:27:58;5.97;;;4.07;;
27632;SDS011;15046;50.930;13.334;2023-09-18T01:30:24;5.63;;;4.20;;
27632;SDS011;15046;50.930;13.334;2023-09-18T01:32:49;6.32;;;4.32;;
27632;SDS011;15046;50.930;13.334;2023-09-18T01:35:16;7.13;;;4.30;;
27632;SDS011;15046;50.930;13.334;2023-09-18T01:37:42;7.90;;;4.82;;
27632;SDS011;15046;50.930;13.334;2023-09-18T01:40:10;8.88;;;4.68;;
27632;SDS011;15046;50.930;13.334;2023-09-18T01:42:36;8.23;;;4.22;;
27632;SDS011;15046;50.930;13.334;2023-09-18T01:45:02;6.72;;;4.47;;
27632;SDS011;15046;50.930;13.334;2023-09-18T01:47:30;7.63;;;3.90;;
27632;SDS011;15046;50.930;13.334;2023-09-18T01:49:56;7.10;;;4.47;;
27632;SDS011;15046;50.930;13.334;2023-09-18T01:52:22;6.70;;;4.22;;
27632;SDS011;15046;50.930;13.334;2023-09-18T01:54:47;7.07;;;4.32;;
27632;SDS011;15046;50.930;13.334;2023-09-18T01:57:14;7.10;;;4.68;;
27632;SDS011;15046;50.930;13.334;2023-09-18T01:59:39;5.47;;;4.07;;
27632;SDS011;15046;50.930;13.334;2023-09-18T02:02:06;7.32;;;4.68;;
27632;SDS011;15046;50.930;13.334;2023-09-18T02:04:34;6.45;;;4.50;;
27632;SDS011;15046;50.930;13.334;2023-09-18T02:07:01;8.13;;;4.20;;
27632;SDS011;15046;50.930;13.334;2023-09-18T02:09:27;6.03;;;4.07;;
27632;SDS011;15046;50.930;13.334;2023-09-18T02:11:53;6.95;;;4.35;;
27632;SDS011;15046;50.930;13.334;2023-09-18T02:14:18;8.27;;;3.42;;
27632;SDS011;15046;50.930;13.334;2023-09-18T02:16:44;7.22;;;3.83;;
27632;SDS011;15046;50.930;13.334;2023-09-18T02:19:11;9.65;;;3.85;;
27632;SDS011;15046;50.930;13.334;2023-09-18T02:21:38;6.13;;;3.97;;
27632;SDS011;15046;50.930;13.334;2023-09-18T02:24:05;6.05;;;4.38;;
27632;SDS011;15046;50.930;13.334;2023-09-18T02:26:31;6.22;;;4.03;;
27632;SDS011;15046;50.930;13.334;2023-09-18T02:29:00;6.28;;;3.80;;
27632;SDS011;15046;50.930;13.334;2023-09-18T02:31:27;7.97;;;3.50;;
27632;SDS011;15046;50.930;13.334;2023-09-18T02:33:53;9.23;;;4.00;;
27632;SDS011;15046;50.930;13.334;2023-09-18T02:36:19;5.63;;;3.83;;
27632;SDS011;15046;50.930;13.334;2023-09-18T02:38:45;5.60;;;4.07;;
27632;SDS011;15046;50.930;13.334;2023-09-18T02:41:10;7.35;;;3.88;;
27632;SDS011;15046;50.930;13.334;2023-09-18T02:43:36;6.10;;;3.95;;
27632;SDS011;15046;50.930;13.334;2023-09-18T02:46:05;6.28;;;3.85;;
27632;SDS011;15046;50.930;13.334;2023-09-18T02:48:32;5.22;;;3.65;;
27632;SDS011;15046;50.930;13.334;2023-09-18T02:51:00;5.22;;;3.50;;
27632;SDS011;15046;50.930;13.334;2023-09-18T02:53:27;5.05;;;3.60;;
27632;SDS011;15046;50.930;13.334;2023-09-18T02:55:53;9.60;;;4.35;;
27632;SDS011;15046;50.930;13.334;2023-09-18T02:58:20;6.32;;;3.55;;
27632;SDS011;15046;50.930;13.334;2023-09-18T03:00:48;5.97;;;3.80;;
27632;SDS011;15046;50.930;13.334;2023-09-18T03:03:15;4.93;;;3.42;;
27632;SDS011;15046;50.930;13.334;2023-09-18T03:05:42;6.47;;;3.63;;
27632;SDS011;15046;50.930;13.334;2023-09-18T03:08:09;6.80;;;4.00;;
27632;SDS011;15046;50.930;13.334;2023-09-18T03:10:36;7.28;;;3.85;;
27632;SDS011;15046;50.930;13.334;2023-09-18T03:13:07;5.32;;;3.97;;
27632;SDS011;15046;50.930;13.334;2023-09-18T03:15:34;5.75;;;4.10;;
27632;SDS011;15046;50.930;13.334;2023-09-18T03:18:02;6.47;;;4.10;;
27632;SDS011;15046;50.930;13.334;2023-09-18T03:20:29;6.13;;;3.58;;
27632;SDS011;15046;50.930;13.334;2023-09-18T03:22:59;5.97;;;3.35;;
27632;SDS011;15046;50.930;13.334;2023-09-18T03:25:27;5.57;;;3.72;;
27632;SDS011;15046;50.930;13.334;2023-09-18T03:27:54;6.50;;;3.40;;
27632;SDS011;15046;50.930;13.334;2023-09-18T03:30:21;6.93;;;3.45;;
27632;SDS011;15046;50.930;13.334;2023-09-18T03:32:51;6.28;;;3.60;;
27632;SDS011;15046;50.930;13.334;2023-09-18T03:35:17;4.80;;;3.30;;
27632;SDS011;15046;50.930;13.334;2023-09-18T03:37:44;5.25;;;3.85;;
27632;SDS011;15046;50.930;13.334;2023-09-18T03:40:13;5.90;;;4.03;;
27632;SDS011;15046;50.930;13.334;2023-09-18T03:42:41;6.78;;;3.70;;
27632;SDS011;15046;50.930;13.334;2023-09-18T03:45:07;5.32;;;3.78;;
27632;SDS011;15046;50.930;13.334;2023-09-18T03:47:34;6.70;;;4.50;;
27632;SDS011;15046;50.930;13.334;2023-09-18T03:50:01;7.15;;;4.30;;
27632;SDS011;15046;50.930;13.334;2023-09-18T03:52:27;7.22;;;4.65;;
27632;SDS011;15046;50.930;13.334;2023-09-18T03:54:53;7.13;;;4.20;;
27632;SDS011;15046;50.930;13.334;2023-09-18T03:57:19;5.07;;;3.55;;
27632;SDS011;15046;50.930;13.334;2023-09-18T03:59:45;11.07;;;4.47;;
27632;SDS011;15046;50.930;13.334;2023-09-18T04:02:10;5.28;;;4.07;;
27632;SDS011;15046;50.930;13.334;2023-09-18T04:04:36;6.00;;;3.85;;
27632;SDS011;15046;50.930;13.334;2023-09-18T04:07:05;5.97;;;3.90;;
27632;SDS011;15046;50.930;13.334;2023-09-18T04:09:31;5.22;;;4.00;;
27632;SDS011;15046;50.930;13.334;2023-09-18T04:11:57;6.28;;;3.95;;
27632;SDS011;15046;50.930;13.334;2023-09-18T04:14:23;5.93;;;4.45;;
27632;SDS011;15046;50.930;13.334;2023-09-18T04:16:49;6.80;;;4.82;;
27632;SDS011;15046;50.930;13.334;2023-09-18T04:19:15;6.85;;;4.60;;
27632;SDS011;15046;50.930;13.334;2023-09-18T04:21:41;6.85;;;4.22;;
27632;SDS011;15046;50.930;13.334;2023-09-18T04:24:06;6.47;;;4.65;;
27632;SDS011;15046;50.930;13.334;2023-09-18T04:26:32;6.72;;;4.65;;
27632;SDS011;15046;50.930;13.334;2023-09-18T04:29:01;7.60;;;4.82;;
27632;SDS011;15046;50.930;13.334;2023-09-18T04:31:27;11.10;;;4.80;;
27632;SDS011;15046;50.930;13.334;2023-09-18T04:33:53;6.47;;;4.80;;
27632;SDS011;15046;50.930;13.334;2023-09-18T04:36:19;5.40;;;3.88;;
27632;SDS011;15046;50.930;13.334;2023-09-18T04:38:45;5.90;;;4.40;;
27632;SDS011;15046;50.930;13.334;2023-09-18T04:41:11;7.15;;;4.80;;
27632;SDS011;15046;50.930;13.334;2023-09-18T04:43:37;8.13;;;5.00;;
27632;SDS011;15046;50.930;13.334;2023-09-18T04:46:05;8.50;;;5.88;;
27632;SDS011;15046;50.930;13.334;2023-09-18T04:48:31;8.32;;;5.70;;
27632;SDS011;15046;50.930;13.334;2023-09-18T04:50:58;9.50;;;5.70;;
27632;SDS011;15046;50.930;13.334;2023-09-18T04:53:24;9.45;;;5.75;;
27632;SDS011;15046;50.930;13.334;2023-09-18T04:55:52;9.23;;;5.72;;
27632;SDS011;15046;50.930;13.334;2023-09-18T04:58:18;7.85;;;5.93;;
27632;SDS011;15046;50.930;13.334;2023-09-18T05:00:43;12.00;;;6.00;;
27632;SDS011;15046;50.930;13.334;2023-09-18T05:03:11;8.35;;;5.97;;
27632;SDS011;15046;50.930;13.334;2023-09-18T05:05:38;9.05;;;5.63;;
27632;SDS011;15046;50.930;13.334;2023-09-18T05:08:05;8.95;;;6.13;;
27632;SDS011;15046;50.930;13.334;2023-09-18T05:10:35;11.02;;;5.97;;
27632;SDS011;15046;50.930;13.334;2023-09-18T05:13:02;8.95;;;6.13;;
27632;SDS011;15046;50.930;13.334;2023-09-18T05:15:29;11.65;;;6.88;;
27632;SDS011;15046;50.930;13.334;2023-09-18T05:17:55;13.02;;;7.07;;
27632;SDS011;15046;50.930;13.334;2023-09-18T05:20:23;12.57;;;6.45;;
27632;SDS011;15046;50.930;13.334;2023-09-18T05:22:54;11.55;;;6.22;;
27632;SDS011;15046;50.930;13.334;2023-09-18T05:25:21;11.73;;;6.65;;
27632;SDS011;15046;50.930;13.334;2023-09-18T05:27:49;21.55;;;6.53;;
27632;SDS011;15046;50.930;13.334;2023-09-18T05:30:21;12.32;;;6.50;;
27632;SDS011;15046;50.930;13.334;2023-09-18T05:32:57;10.73;;;6.47;;
27632;SDS011;15046;50.930;13.334;2023-09-18T05:35:42;12.32;;;7.00;;
27632;SDS011;15046;50.930;13.334;2023-09-18T05:38:10;8.15;;;6.30;;
27632;SDS011;15046;50.930;13.334;2023-09-18T05:40:38;9.45;;;6.45;;
27632;SDS011;15046;50.930;13.334;2023-09-18T05:43:04;7.78;;;6.35;;
27632;SDS011;15046;50.930;13.334;2023-09-18T05:45:31;9.10;;;6.43;;
27632;SDS011;15046;50.930;13.334;2023-09-18T05:47:57;8.27;;;5.72;;
27632;SDS011;15046;50.930;13.334;2023-09-18T05:50:28;9.07;;;6.47;;
27632;SDS011;15046;50.930;13.334;2023-09-18T05:52:59;11.82;;;6.45;;
27632;SDS011;15046;50.930;13.334;2023-09-18T05:55:28;8.40;;;6.10;;
27632;SDS011;15046;50.930;13.334;2023-09-18T05:57:55;8.65;;;6.22;;
27632;SDS011;15046;50.930;13.334;2023-09-18T06:00:22;9.57;;;5.88;;
27632;SDS011;15046;50.930;13.334;2023-09-18T06:02:48;8.05;;;6.28;;
27632;SDS011;15046;50.930;13.334;2023-09-18T06:05:16;8.93;;;6.05;;
27632;SDS011;15046;50.930;13.334;2023-09-18T06:07:42;11.25;;;6.30;;
27632;SDS011;15046;50.930;13.334;2023-09-18T06:10:09;9.75;;;6.60;;
27632;SDS011;15046;50.930;13.334;2023-09-18T06:12:37;10.48;;;6.63;;
27632;SDS011;15046;50.930;13.334;2023-09-18T06:15:05;9.02;;;6.30;;
27632;SDS011;15046;50.930;13.334;2023-09-18T06:17:33;9.55;;;6.55;;
27632;SDS011;15046;50.930;13.334;2023-09-18T06:19:59;9.40;;;6.82;;
27632;SDS011;15046;50.930;13.334;2023-09-18T06:22:24;9.45;;;6.68;;
27632;SDS011;15046;50.930;13.334;2023-09-18T06:24:50;9.43;;;7.22;;
27632;SDS011;15046;50.930;13.334;2023-09-18T06:27:16;9.63;;;7.13;;
27632;SDS011;15046;50.930;13.334;2023-09-18T06:29:43;12.65;;;7.13;;
27632;SDS011;15046;50.930;13.334;2023-09-18T06:32:09;11.88;;;6.75;;
27632;SDS011;15046;50.930;13.334;2023-09-18T06:34:36;7.43;;;6.25;;
27632;SDS011;15046;50.930;13.334;2023-09-18T06:37:02;7.43;;;5.30;;
27632;SDS011;15046;50.930;13.334;2023-09-18T06:39:31;8.65;;;5.72;;
27632;SDS011;15046;50.930;13.334;2023-09-18T06:41:56;7.50;;;6.32;;
27632;SDS011;15046;50.930;13.334;2023-09-18T06:44:22;10.77;;;5.75;;
27632;SDS011;15046;50.930;13.334;2023-09-18T06:46:49;8.77;;;5.53;;
27632;SDS011;15046;50.930;13.334;2023-09-18T06:49:14;7.53;;;5.10;;
27632;SDS011;15046;50.930;13.334;2023-09-18T06:51:40;8.20;;;4.68;;
27632;SDS011;15046;50.930;13.334;2023-09-18T06:54:06;8.43;;;4.97;;
27632;SDS011;15046;50.930;13.334;2023-09-18T06:56:32;8.50;;;4.63;;
27632;SDS011;15046;50.930;13.334;2023-09-18T06:58:58;7.18;;;5.10;;
27632;SDS011;15046;50.930;13.334;2023-09-18T07:01:23;6.97;;;5.32;;
27632;SDS011;15046;50.930;13.334;2023-09-18T07:03:52;8.20;;;4.32;;
27632;SDS011;15046;50.930;13.334;2023-09-18T07:06:18;8.10;;;4.30;;
27632;SDS011;15046;50.930;13.334;2023-09-18T07:08:45;8.57;;;4.28;;
27632;SDS011;15046;50.930;13.334;2023-09-18T07:11:12;6.20;;;4.13;;
27632;SDS011;15046;50.930;13.334;2023-09-18T07:13:38;7.72;;;3.83;;
27632;SDS011;15046;50.930;13.334;2023-09-18T07:16:04;5.72;;;3.60;;
27632;SDS011;15046;50.930;13.334;2023-09-18T07:18:30;4.72;;;3.50;;
27632;SDS011;15046;50.930;13.334;2023-09-18T07:20:56;6.85;;;3.55;;
27632;SDS011;15046;50.930;13.334;2023-09-18T07:23:22;4.80;;;3.45;;
27632;SDS011;15046;50.930;13.334;2023-09-18T07:25:48;5.75;;;3.80;;
27632;SDS011;15046;50.930;13.334;2023-09-18T07:28:14;8.65;;;3.65;;
27632;SDS011;15046;50.930;13.334;2023-09-18T07:30:43;6.75;;;3.55;;
27632;SDS011;15046;50.930;13.334;2023-09-18T07:33:09;4.97;;;3.58;;
27632;SDS011;15046;50.930;13.334;2023-09-18T07:35:35;8.30;;;3.78;;
27632;SDS011;15046;50.930;13.334;2023-09-18T07:38:01;7.57;;;4.15;;
27632;SDS011;15046;50.930;13.334;2023-09-18T07:40:27;5.25;;;3.22;;
27632;SDS011;15046;50.930;13.334;2023-09-18T07:42:53;7.40;;;3.60;;
27632;SDS011;15046;50.930;13.334;2023-09-18T07:45:19;6.15;;;3.63;;
27632;SDS011;15046;50.930;13.334;2023-09-18T07:47:44;5.85;;;3.88;;
27632;SDS011;15046;50.930;13.334;2023-09-18T07:50:10;5.05;;;3.53;;
27632;SDS011;15046;50.930;13.334;2023-09-18T07:52:36;7.32;;;3.30;;
27632;SDS011;15046;50.930;13.334;2023-09-18T07:55:02;5.63;;;3.33;;
27632;SDS011;15046;50.930;13.334;2023-09-18T07:57:28;9.07;;;3.47;;
27632;SDS011;15046;50.930;13.334;2023-09-18T07:59:55;6.38;;;3.13;;
27632;SDS011;15046;50.930;13.334;2023-09-18T08:02:21;7.63;;;3.63;;
27632;SDS011;15046;50.930;13.334;2023-09-18T08:04:47;6.88;;;3.97;;
27632;SDS011;15046;50.930;13.334;2023-09-18T08:07:13;4.85;;;3.17;;
27632;SDS011;15046;50.930;13.334;2023-09-18T08:09:39;5.45;;;3.25;;
27632;SDS011;15046;50.930;13.334;2023-09-18T08:12:05;7.60;;;3.10;;
27632;SDS011;15046;50.930;13.334;2023-09-18T08:14:32;4.18;;;2.97;;
27632;SDS011;15046;50.930;13.334;2023-09-18T08:17:00;9.05;;;2.75;;
27632;SDS011;15046;50.930;13.334;2023-09-18T08:19:28;6.88;;;3.22;;
27632;SDS011;15046;50.930;13.334;2023-09-18T08:21:54;5.38;;;3.00;;
27632;SDS011;15046;50.930;13.334;2023-09-18T08:24:21;7.10;;;3.03;;
27632;SDS011;15046;50.930;13.334;2023-09-18T08:26:48;4.85;;;3.33;;
27632;SDS011;15046;50.930;13.334;2023-09-18T08:29:14;6.05;;;3.20;;
27632;SDS011;15046;50.930;13.334;2023-09-18T08:31:40;5.18;;;2.90;;
27632;SDS011;15046;50.930;13.334;2023-09-18T08:34:07;4.55;;;3.33;;
27632;SDS011;15046;50.930;13.334;2023-09-18T08:36:32;5.03;;;3.05;;
27632;SDS011;15046;50.930;13.334;2023-09-18T08:38:58;5.00;;;3.60;;
27632;SDS011;15046;50.930;13.334;2023-09-18T08:41:24;4.80;;;2.95;;
27632;SDS011;15046;50.930;13.334;2023-09-18T08:43:58;7.53;;;3.10;;
27632;SDS011;15046;50.930;13.334;2023-09-18T08:46:26;8.95;;;3.30;;
27632;SDS011;15046;50.930;13.334;2023-09-18T08:48:52;5.25;;;3.45;;
27632;SDS011;15046;50.930;13.334;2023-09-18T08:51:19;6.13;;;3.75;;
27632;SDS011;15046;50.930;13.334;2023-09-18T08:53:46;7.07;;;3.38;;
27632;SDS011;15046;50.930;13.334;2023-09-18T08:56:12;5.63;;;3.28;;
27632;SDS011;15046;50.930;13.334;2023-09-18T08:58:40;5.78;;;3.38;;
27632;SDS011;15046;50.930;13.334;2023-09-18T09:01:10;8.88;;;3.45;;
27632;SDS011;15046;50.930;13.334;2023-09-18T09:03:37;6.63;;;3.50;;
27632;SDS011;15046;50.930;13.334;2023-09-18T09:06:08;5.07;;;3.40;;
27632;SDS011;15046;50.930;13.334;2023-09-18T09:08:34;5.18;;;3.67;;
27632;SDS011;15046;50.930;13.334;2023-09-18T09:11:01;7.22;;;3.63;;
27632;SDS011;15046;50.930;13.334;2023-09-18T09:13:30;4.95;;;3.50;;
27632;SDS011;15046;50.930;13.334;2023-09-18T09:15:56;7.40;;;3.70;;
27632;SDS011;15046;50.930;13.334;2023-09-18T09:18:24;4.57;;;3.20;;
27632;SDS011;15046;50.930;13.334;2023-09-18T09:20:58;5.57;;;3.65;;
27632;SDS011;15046;50.930;13.334;2023-09-18T09:23:30;6.57;;;3.60;;
27632;SDS011;15046;50.930;13.334;2023-09-18T09:26:15;6.22;;;3.40;;
27632;SDS011;15046;50.930;13.334;2023-09-18T09:28:42;6.80;;;3.22;;
27632;SDS011;15046;50.930;13.334;2023-09-18T09:31:09;7.88;;;4.28;;
27632;SDS011;15046;50.930;13.334;2023-09-18T09:33:35;6.70;;;4.18;;
27632;SDS011;15046;50.930;13.334;2023-09-18T09:36:04;5.03;;;4.15;;
27632;SDS011;15046;50.930;13.334;2023-09-18T09:38:31;7.60;;;4.35;;
27632;SDS011;15046;50.930;13.334;2023-09-18T09:40:59;6.95;;;4.05;;
27632;SDS011;15046;50.930;13.334;2023-09-18T09:43:32;5.93;;;3.90;;
27632;SDS011;15046;50.930;13.334;2023-09-18T09:46:02;5.75;;;3.70;;
27632;SDS011;15046;50.930;13.334;2023-09-18T09:51:00;8.13;;;4.78;;
27632;SDS011;15046;50.930;13.334;2023-09-18T09:53:42;6.47;;;4.05;;
27632;SDS011;15046;50.930;13.334;2023-09-18T09:56:15;7.18;;;4.20;;
27632;SDS011;15046;50.930;13.334;2023-09-18T09:59:08;7.15;;;3.58;;
27632;SDS011;15046;50.930;13.334;2023-09-18T10:01:33;6.25;;;3.90;;
27632;SDS011;15046;50.930;13.334;2023-09-18T10:04:00;5.32;;;3.83;;
27632;SDS011;15046;50.930;13.334;2023-09-18T10:06:40;6.93;;;4.00;;
27632;SDS011;15046;50.930;13.334;2023-09-18T10:11:37;6.85;;;3.90;;
27632;SDS011;15046;50.930;13.334;2023-09-18T10:14:12;6.13;;;3.90;;
27632;SDS011;15046;50.930;13.334;2023-09-18T10:16:41;6.82;;;3.70;;
27632;SDS011;15046;50.930;13.334;2023-09-18T10:19:27;5.95;;;3.90;;
27632;SDS011;15046;50.930;13.334;2023-09-18T10:24:46;8.05;;;4.28;;
27632;SDS011;15046;50.930;13.334;2023-09-18T10:27:14;6.00;;;3.97;;
27632;SDS011;15046;50.930;13.334;2023-09-18T10:29:43;8.35;;;3.90;;
27632;SDS011;15046;50.930;13.334;2023-09-18T10:32:10;7.20;;;4.35;;
27632;SDS011;15046;50.930;13.334;2023-09-18T10:34:37;7.03;;;4.70;;
27632;SDS011;15046;50.930;13.334;2023-09-18T10:37:04;8.43;;;4.43;;
27632;SDS011;15046;50.930;13.334;2023-09-18T10:39:36;6.03;;;5.20;;
27632;SDS011;15046;50.930;13.334;2023-09-18T10:42:06;7.88;;;5.00;;
27632;SDS011;15046;50.930;13.334;2023-09-18T10:44:33;7.78;;;4.57;;
27632;SDS011;15046;50.930;13.334;2023-09-18T10:47:00;8.68;;;4.15;;
27632;SDS011;15046;50.930;13.334;2023-09-18T10:49:30;10.07;;;3.72;;
27632;SDS011;15046;50.930;13.334;2023-09-18T10:51:57;5.82;;;3.88;;
27632;SDS011;15046;50.930;13.334;2023-09-18T10:54:24;4.60;;;4.00;;
27632;SDS011;15046;50.930;13.334;2023-09-18T10:56:51;7.28;;;4.32;;
27632;SDS011;15046;50.930;13.334;2023-09-18T10:59:18;7.60;;;4.88;;
27632;SDS011;15046;50.930;13.334;2023-09-18T11:01:45;6.97;;;4.72;;
27632;SDS011;15046;50.930;13.334;2023-09-18T11:04:13;8.40;;;4.78;;
27632;SDS011;15046;50.930;13.334;2023-09-18T11:09:24;7.75;;;4.90;;
27632;SDS011;15046;50.930;13.334;2023-09-18T11:17:27;8.23;;;4.53;;
27632;SDS011;15046;50.930;13.334;2023-09-18T11:25:35;6.45;;;4.72;;
27632;SDS011;15046;50.930;13.334;2023-09-18T11:28:03;8.40;;;4.50;;
27632;SDS011;15046;50.930;13.334;2023-09-18T11:33:01;9.65;;;4.55;;
27632;SDS011;15046;50.930;13.334;2023-09-18T11:35:31;7.18;;;4.50;;
27632;SDS011;15046;50.930;13.334;2023-09-18T11:40:31;5.72;;;4.22;;
27632;SDS011;15046;50.930;13.334;2023-09-18T11:43:19;7.18;;;3.60;;
27632;SDS011;15046;50.930;13.334;2023-09-18T11:45:58;7.97;;;4.13;;
27632;SDS011;15046;50.930;13.334;2023-09-18T11:48:25;5.18;;;3.97;;
27632;SDS011;15046;50.930;13.334;2023-09-18T11:50:58;7.80;;;4.43;;
27632;SDS011;15046;50.930;13.334;2023-09-18T11:53:24;7.20;;;5.25;;
27632;SDS011;15046;50.930;13.334;2023-09-18T11:55:52;9.07;;;4.00;;
27632;SDS011;15046;50.930;13.334;2023-09-18T11:58:18;7.53;;;4.30;;
27632;SDS011;15046;50.930;13.334;2023-09-18T12:00:48;7.18;;;4.32;;
27632;SDS011;15046;50.930;13.334;2023-09-18T12:03:19;7.72;;;5.05;;
27632;SDS011;15046;50.930;13.334;2023-09-18T12:05:55;10.05;;;4.70;;
27632;SDS011;15046;50.930;13.334;2023-09-18T12:08:26;9.02;;;4.75;;
27632;SDS011;15046;50.930;13.334;2023-09-18T12:10:55;7.53;;;4.33;;
27632;SDS011;15046;50.930;13.334;2023-09-18T12:13:21;5.95;;;4.55;;
27632;SDS011;15046;50.930;13.334;2023-09-18T12:15:49;9.23;;;3.88;;
27632;SDS011;15046;50.930;13.334;2023-09-18T12:18:15;9.10;;;4.40;;
27632;SDS011;15046;50.930;13.334;2023-09-18T12:20:45;6.28;;;3.92;;
27632;SDS011;15046;50.930;13.334;2023-09-18T12:23:12;6.13;;;4.50;;
27632;SDS011;15046;50.930;13.334;2023-09-18T12:25:38;7.10;;;5.00;;
27632;SDS011;15046;50.930;13.334;2023-09-18T12:28:05;8.68;;;4.68;;
27632;SDS011;15046;50.930;13.334;2023-09-18T12:30:32;7.32;;;4.13;;
27632;SDS011;15046;50.930;13.334;2023-09-18T12:32:58;10.48;;;4.80;;
27632;SDS011;15046;50.930;13.334;2023-09-18T12:35:29;12.38;;;4.53;;
27632;SDS011;15046;50.930;13.334;2023-09-18T12:37:58;8.07;;;4.10;;
27632;SDS011;15046;50.930;13.334;2023-09-18T12:40:29;10.88;;;4.30;;
27632;SDS011;15046;50.930;13.334;2023-09-18T12:42:58;7.80;;;3.88;;
27632;SDS011;15046;50.930;13.334;2023-09-18T12:45:24;8.23;;;3.33;;
27632;SDS011;15046;50.930;13.334;2023-09-18T12:47:53;9.68;;;3.45;;
27632;SDS011;15046;50.930;13.334;2023-09-18T12:50:20;11.02;;;3.17;;
27632;SDS011;15046;50.930;13.334;2023-09-18T12:52:46;9.77;;;2.95;;
27632;SDS011;15046;50.930;13.334;2023-09-18T12:55:24;10.98;;;2.80;;
27632;SDS011;15046;50.930;13.334;2023-09-18T12:57:52;15.35;;;3.13;;
27632;SDS011;15046;50.930;13.334;2023-09-18T13:00:19;11.75;;;2.90;;
27632;SDS011;15046;50.930;13.334;2023-09-18T13:02:48;9.07;;;2.97;;
27632;SDS011;15046;50.930;13.334;2023-09-18T13:05:20;11.25;;;2.92;;
27632;SDS011;15046;50.930;13.334;2023-09-18T13:07:51;9.88;;;2.63;;
27632;SDS011;15046;50.930;13.334;2023-09-18T13:10:18;15.18;;;3.55;;
27632;SDS011;15046;50.930;13.334;2023-09-18T13:12:48;10.82;;;3.17;;
27632;SDS011;15046;50.930;13.334;2023-09-18T13:17:58;13.25;;;4.00;;
27632;SDS011;15046;50.930;13.334;2023-09-18T13:20:26;11.80;;;3.35;;
27632;SDS011;15046;50.930;13.334;2023-09-18T13:22:57;7.95;;;2.63;;
27632;SDS011;15046;50.930;13.334;2023-09-18T13:25:29;9.27;;;2.60;;
27632;SDS011;15046;50.930;13.334;2023-09-18T13:27:59;7.15;;;2.33;;
27632;SDS011;15046;50.930;13.334;2023-09-18T13:30:26;7.72;;;2.45;;
27632;SDS011;15046;50.930;13.334;2023-09-18T13:33:00;8.32;;;2.72;;
27632;SDS011;15046;50.930;13.334;2023-09-18T13:35:28;10.48;;;2.55;;
27632;SDS011;15046;50.930;13.334;2023-09-18T13:37:54;11.02;;;2.97;;
27632;SDS011;15046;50.930;13.334;2023-09-18T13:40:20;6.18;;;3.20;;
27632;SDS011;15046;50.930;13.334;2023-09-18T13:42:47;8.32;;;2.55;;
27632;SDS011;15046;50.930;13.334;2023-09-18T13:45:14;9.55;;;2.92;;
27632;SDS011;15046;50.930;13.334;2023-09-18T13:47:43;11.60;;;2.80;;
27632;SDS011;15046;50.930;13.334;2023-09-18T13:50:09;10.32;;;2.90;;
27632;SDS011;15046;50.930;13.334;2023-09-18T13:52:35;10.88;;;2.90;;
27632;SDS011;15046;50.930;13.334;2023-09-18T13:55:02;10.90;;;3.38;;
27632;SDS011;15046;50.930;13.334;2023-09-18T13:57:32;11.73;;;3.58;;
27632;SDS011;15046;50.930;13.334;2023-09-18T13:59:59;11.20;;;3.13;;
27632;SDS011;15046;50.930;13.334;2023-09-18T14:02:25;14.32;;;3.47;;
27632;SDS011;15046;50.930;13.334;2023-09-18T14:04:55;12.48;;;3.53;;
27632;SDS011;15046;50.930;13.334;2023-09-18T14:07:20;11.23;;;3.08;;
27632;SDS011;15046;50.930;13.334;2023-09-18T14:09:47;9.45;;;2.95;;
27632;SDS011;15046;50.930;13.334;2023-09-18T14:12:13;8.98;;;2.92;;
27632;SDS011;15046;50.930;13.334;2023-09-18T14:14:40;9.95;;;3.78;;
27632;SDS011;15046;50.930;13.334;2023-09-18T14:17:07;9.40;;;3.40;;
27632;SDS011;15046;50.930;13.334;2023-09-18T14:19:33;8.85;;;3.47;;
27632;SDS011;15046;50.930;13.334;2023-09-18T14:22:00;9.57;;;3.92;;
27632;SDS011;15046;50.930;13.334;2023-09-18T14:24:29;9.93;;;3.27;;
27632;SDS011;15046;50.930;13.334;2023-09-18T14:26:55;10.57;;;2.95;;
27632;SDS011;15046;50.930;13.334;2023-09-18T14:29:21;6.70;;;2.95;;
27632;SDS011;15046;50.930;13.334;2023-09-18T14:31:47;6.97;;;2.75;;
27632;SDS011;15046;50.930;13.334;2023-09-18T14:34:13;7.15;;;2.35;;
27632;SDS011;15046;50.930;13.334;2023-09-18T14:36:39;8.35;;;2.75;;
27632;SDS011;15046;50.930;13.334;2023-09-18T14:39:05;10.55;;;2.92;;
27632;SDS011;15046;50.930;13.334;2023-09-18T14:44:03;5.88;;;1.75;;
27632;SDS011;15046;50.930;13.334;2023-09-18T14:46:30;3.97;;;1.38;;
27632;SDS011;15046;50.930;13.334;2023-09-18T14:48:59;5.45;;;1.40;;
27632;SDS011;15046;50.930;13.334;2023-09-18T14:51:26;4.78;;;1.70;;
27632;SDS011;15046;50.930;13.334;2023-09-18T14:53:53;10.13;;;2.15;;
27632;SDS011;15046;50.930;13.334;2023-09-18T14:56:20;5.00;;;1.65;;
27632;SDS011;15046;50.930;13.334;2023-09-18T14:58:46;7.90;;;1.80;;
27632;SDS011;15046;50.930;13.334;2023-09-18T15:01:12;5.65;;;1.80;;
27632;SDS011;15046;50.930;13.334;2023-09-18T15:03:39;6.57;;;1.60;;
27632;SDS011;15046;50.930;13.334;2023-09-18T15:06:05;3.53;;;1.52;;
27632;SDS011;15046;50.930;13.334;2023-09-18T15:08:33;6.50;;;1.75;;